Time;durP1;ratioP1;P1;durP2;ratioP2;P2;SDS_P1;SDS_P2;PMS_P1;PMS_P2;Temp;Humidity;BMP_temperature;BMP_pressure;BME280_temperature;BME280_humidity;BME280_pressure;Samples;Min_cycle;Max_cycle;Signal;HPM_P1;HPM_P2
2022/04/28 00:00:20;;;;;;;2.28;1.17;;;409.90;2355.20;;;;;;4913915;29;20089;-80
2022/04/28 00:02:48;;;;;;;2.80;1.20;;;409.70;2355.20;;;;;;4900083;29;20139;-78
2022/04/28 00:05:15;;;;;;;1.30;0.85;;;410.00;2355.20;;;;;;4900273;29;20028;-76
2022/04/28 00:07:41;;;;;;;1.88;1.10;;;410.00;2355.20;;;;;;4900268;29;20036;-77
2022/04/28 00:10:08;;;;;;;3.15;1.00;;;410.00;2355.20;;;;;;4899951;29;20058;-81
2022/04/28 00:12:34;;;;;;;1.52;0.80;;;410.00;2355.20;;;;;;4900203;29;20028;-78
2022/04/28 00:15:00;;;;;;;2.95;1.10;;;410.00;2355.20;;;;;;4899825;29;20375;-80
2022/04/28 00:17:26;;;;;;;1.80;1.00;;;410.10;2355.20;;;;;;4916830;29;20055;-81
2022/04/28 00:19:52;;;;;;;4.07;1.20;;;410.20;2355.20;;;;;;4900174;29;20063;-80
2022/04/28 00:22:18;;;;;;;2.30;1.25;;;410.00;2355.20;;;;;;4899886;29;20031;-80
2022/04/28 00:24:44;;;;;;;2.08;1.13;;;410.00;2355.20;;;;;;4900164;29;20124;-77
2022/04/28 00:27:10;;;;;;;1.95;1.00;;;409.90;2355.20;;;;;;4899994;29;20035;-79
2022/04/28 00:29:36;;;;;;;1.02;0.73;;;410.10;2355.20;;;;;;4899761;29;20036;-78
2022/04/28 00:32:02;;;;;;;3.45;1.10;;;410.00;2355.20;;;;;;4882355;29;20055;-79
2022/04/28 00:34:28;;;;;;;2.15;0.93;;;409.80;2355.20;;;;;;4880521;29;20032;-77
2022/04/28 00:36:55;;;;;;;1.88;0.90;;;409.80;2355.20;;;;;;4910583;29;20102;-79
2022/04/28 00:39:21;;;;;;;1.15;0.80;;;409.70;2355.20;;;;;;4899719;29;20398;-78
2022/04/28 00:41:47;;;;;;;1.08;0.80;;;409.60;2355.20;;;;;;4899788;29;20069;-77
2022/04/28 00:44:13;;;;;;;1.38;0.80;;;409.70;2355.20;;;;;;4899224;29;20032;-78
2022/04/28 00:46:42;;;;;;;4.78;1.20;;;409.60;2355.20;;;;;;4887342;29;20538;-78
2022/04/28 00:51:54;;;;;;;1.75;0.77;;;384.70;2329.60;;;;;;4897295;29;20064;-79
2022/04/28 00:54:21;;;;;;;0.95;0.70;;;384.70;2329.60;;;;;;4881020;29;20037;-80
2022/04/28 00:56:48;;;;;;;0.98;0.70;;;384.70;2329.60;;;;;;4880331;29;20075;-80
2022/04/28 00:59:15;;;;;;;1.63;0.80;;;384.60;2329.60;;;;;;4883049;29;20415;-82
2022/04/28 01:01:41;;;;;;;1.45;0.80;;;384.70;2329.60;;;;;;4883797;29;20401;-78
2022/04/28 01:04:07;;;;;;;1.63;0.80;;;384.40;2329.60;;;;;;4884293;29;20032;-78
2022/04/28 01:06:33;;;;;;;0.65;0.63;;;384.40;2329.60;;;;;;4888583;29;20039;-79
2022/04/28 01:09:02;;;;;;;1.35;0.80;;;384.40;2329.60;;;;;;4918722;29;20039;-79
2022/04/28 01:11:31;;;;;;;1.35;0.80;;;384.60;2329.60;;;;;;4917684;29;20032;-79
2022/04/28 01:13:57;;;;;;;1.35;0.70;;;384.40;2329.60;;;;;;4918853;29;20084;-81
2022/04/28 01:16:23;;;;;;;1.40;0.88;;;384.50;2329.60;;;;;;4921158;29;20430;-80
2022/04/28 01:18:49;;;;;;;1.98;1.08;;;384.30;2329.60;;;;;;4929957;29;20032;-80
2022/04/28 01:21:15;;;;;;;1.80;0.80;;;384.30;2329.60;;;;;;4920774;29;20084;-78
2022/04/28 01:23:41;;;;;;;1.88;1.00;;;384.30;2329.60;;;;;;4918723;29;20035;-81
2022/04/28 01:26:07;;;;;;;1.67;0.82;;;384.10;2329.60;;;;;;4917475;29;20111;-80
2022/04/28 01:28:33;;;;;;;3.03;1.30;;;384.20;2329.60;;;;;;4918597;29;20035;-79
2022/04/28 01:31:05;;;;;;;1.38;0.90;;;384.20;2329.60;;;;;;4917567;29;20036;-80
2022/04/28 01:33:32;;;;;;;1.08;0.80;;;384.30;2329.60;;;;;;4918238;29;20032;-79
2022/04/28 01:36:04;;;;;;;1.67;0.80;;;384.40;2329.60;;;;;;4916762;29;20032;-79
2022/04/28 01:38:30;;;;;;;2.22;0.90;;;384.40;2329.60;;;;;;4918368;29;20036;-78
2022/04/28 01:40:56;;;;;;;1.35;0.77;;;384.40;2329.60;;;;;;4917882;29;20075;-79
2022/04/28 01:43:21;;;;;;;1.58;0.85;;;359.30;2329.60;;;;;;4918108;29;20036;-79
2022/04/28 01:45:47;;;;;;;1.55;0.85;;;384.20;2329.60;;;;;;4916594;29;20024;-79
2022/04/28 01:48:13;;;;;;;1.42;1.00;;;384.20;2329.60;;;;;;4902478;29;20454;-82
2022/04/28 01:50:39;;;;;;;1.98;1.00;;;384.20;2329.60;;;;;;4913470;29;20039;-81
2022/04/28 01:55:49;;;;;;;1.42;0.80;;;384.30;2329.60;;;;;;4903260;29;20027;-80
2022/04/28 01:58:15;;;;;;;1.52;0.90;;;384.20;2329.60;;;;;;4902319;29;20036;-79
2022/04/28 02:00:41;;;;;;;1.63;0.80;;;384.20;2329.60;;;;;;4900717;29;20462;-80
2022/04/28 02:03:07;;;;;;;0.90;0.60;;;384.10;2329.60;;;;;;4899746;29;20029;-80
2022/04/28 02:05:42;;;;;;;1.92;0.98;;;384.00;2329.60;;;;;;4881875;29;20032;-77
2022/04/28 02:08:08;;;;;;;1.55;0.90;;;384.10;2329.60;;;;;;4882659;29;20060;-78
2022/04/28 02:10:34;;;;;;;1.67;1.00;;;359.30;2329.60;;;;;;4882817;29;20064;-78
2022/04/28 02:13:03;;;;;;;1.63;0.90;;;384.00;2329.60;;;;;;4891897;29;20432;-82
2022/04/28 02:15:32;;;;;;;1.35;1.08;;;384.10;2329.60;;;;;;4901701;29;20027;-81
2022/04/28 02:17:58;;;;;;;1.50;0.90;;;384.20;2329.60;;;;;;4900820;29;20055;-79
2022/04/28 02:20:26;;;;;;;2.25;1.10;;;384.30;2329.60;;;;;;4901966;29;20036;-80
2022/04/28 02:22:51;;;;;;;1.67;0.95;;;384.30;2329.60;;;;;;4900780;29;20102;-78
2022/04/28 02:25:17;;;;;;;4.15;1.00;;;384.40;2329.60;;;;;;4901664;29;20032;-79
2022/04/28 02:27:43;;;;;;;2.60;1.20;;;384.40;2329.60;;;;;;4900830;29;20031;-79
2022/04/28 02:30:10;;;;;;;2.22;1.10;;;384.10;2329.60;;;;;;4901502;29;20028;-78
2022/04/28 02:35:20;;;;;;;2.97;1.42;;;359.30;2329.60;;;;;;4917540;29;20059;-79
2022/04/28 02:37:46;;;;;;;2.53;1.25;;;384.00;2329.60;;;;;;4901526;29;20032;-81
2022/04/28 02:40:12;;;;;;;2.45;1.30;;;384.00;2329.60;;;;;;4901260;29;20075;-82
2022/04/28 02:42:38;;;;;;;3.65;1.40;;;359.00;2329.60;;;;;;4901340;29;20039;-80
2022/04/28 02:45:05;;;;;;;2.65;1.30;;;359.20;2329.60;;;;;;4900669;29;20118;-79
2022/04/28 02:47:34;;;;;;;2.65;1.40;;;384.10;2329.60;;;;;;4901547;29;20036;-80
2022/04/28 02:50:04;;;;;;;2.30;1.25;;;384.00;2329.60;;;;;;4900357;29;20028;-80
2022/04/28 02:52:30;;;;;;;4.28;1.50;;;359.30;2329.60;;;;;;4901628;29;20059;-78
2022/04/28 02:54:56;;;;;;;3.80;1.40;;;359.30;2329.60;;;;;;4900714;29;20028;-78
2022/04/28 02:57:22;;;;;;;3.47;1.40;;;359.30;2329.60;;;;;;4900404;29;20372;-79
2022/04/28 02:59:51;;;;;;;2.50;1.30;;;359.30;2329.60;;;;;;4897096;29;20055;-78
2022/04/28 03:02:20;;;;;;;2.80;1.52;;;359.20;2329.60;;;;;;4897659;29;20114;-82
2022/04/28 03:04:46;;;;;;;3.25;1.40;;;359.20;2329.60;;;;;;4900512;29;20083;-77
2022/04/28 03:12:56;;;;;;;2.60;1.40;;;359.10;2329.60;;;;;;4899358;29;20036;-81
2022/04/28 03:15:22;;;;;;;3.90;1.70;;;359.10;2329.60;;;;;;4881414;29;20033;-77
2022/04/28 03:17:50;;;;;;;2.83;1.30;;;359.10;2329.60;;;;;;4881976;29;20077;-78
2022/04/28 03:20:16;;;;;;;1.90;1.10;;;359.20;2329.60;;;;;;4880955;29;20051;-79
2022/04/28 03:22:43;;;;;;;2.42;1.30;;;359.10;2329.60;;;;;;4881537;29;20037;-82
2022/04/28 03:25:10;;;;;;;3.08;1.40;;;359.10;2329.60;;;;;;4881148;29;20033;-78
2022/04/28 03:27:36;;;;;;;3.22;1.60;;;359.10;2329.60;;;;;;4881993;29;20024;-80
2022/04/28 03:30:04;;;;;;;3.15;1.70;;;359.10;2329.60;;;;;;4881387;29;20037;-79
2022/04/28 03:32:30;;;;;;;5.45;2.00;;;359.10;2329.60;;;;;;4881450;29;20032;-77
2022/04/28 03:34:56;;;;;;;3.10;1.90;;;359.10;2329.60;;;;;;4882035;29;20480;-80
2022/04/28 03:37:28;;;;;;;3.30;1.90;;;359.10;2329.60;;;;;;4880542;29;20110;-77
2022/04/28 03:39:54;;;;;;;3.28;2.03;;;359.10;2329.60;;;;;;4881399;29;20048;-79
2022/04/28 03:42:19;;;;;;;7.80;2.33;;;359.00;2329.60;;;;;;4881410;29;20033;-79
2022/04/28 03:44:45;;;;;;;6.82;1.77;;;359.10;2329.60;;;;;;4881482;29;20056;-77
2022/04/28 03:47:11;;;;;;;3.38;1.85;;;359.20;2329.60;;;;;;4881873;29;20390;-81
2022/04/28 03:52:32;;;;;;;3.47;1.98;;;359.10;2329.60;;;;;;4894397;29;20048;-81
2022/04/28 03:54:58;;;;;;;3.50;2.20;;;359.00;2329.60;;;;;;4893110;29;20028;-79
2022/04/28 03:57:24;;;;;;;3.60;2.10;;;359.00;2329.60;;;;;;4915227;29;20390;-79
2022/04/28 03:59:50;;;;;;;3.42;2.08;;;359.00;2329.60;;;;;;4929204;29;20052;-81
2022/04/28 04:02:16;;;;;;;3.92;1.90;;;358.90;2329.60;;;;;;4913388;29;20080;-80
2022/04/28 04:04:45;;;;;;;3.35;1.92;;;358.90;2329.60;;;;;;4881498;29;20036;-80
2022/04/28 04:07:11;;;;;;;3.40;2.03;;;358.90;2329.60;;;;;;4880833;29;20466;-80
2022/04/28 04:09:38;;;;;;;4.78;2.50;;;358.90;2329.60;;;;;;4881655;29;20036;-79
2022/04/28 04:12:05;;;;;;;4.15;2.60;;;359.00;2329.60;;;;;;4887350;29;20176;-81
2022/04/28 04:14:32;;;;;;;4.47;2.47;;;359.00;2329.60;;;;;;4915807;29;20051;-80
2022/04/28 04:16:58;;;;;;;4.32;2.42;;;358.90;2329.60;;;;;;4915804;29;20552;-81
2022/04/28 04:19:24;;;;;;;4.53;2.40;;;359.00;2329.60;;;;;;4916514;29;20046;-80
2022/04/28 04:21:58;;;;;;;4.25;2.47;;;358.90;2329.60;;;;;;4915139;29;20036;-81
2022/04/28 04:24:25;;;;;;;3.63;2.22;;;359.00;2329.60;;;;;;4915738;29;20025;-80
2022/04/28 04:26:51;;;;;;;4.53;2.75;;;359.00;2329.60;;;;;;4914937;29;20044;-79
2022/04/28 04:29:20;;;;;;;4.07;2.60;;;358.80;2329.60;;;;;;4915899;29;20071;-78
2022/04/28 04:34:31;;;;;;;5.75;3.42;;;358.80;2329.60;;;;;;4919480;29;20039;-79
2022/04/28 04:36:57;;;;;;;4.30;3.00;;;358.80;2329.60;;;;;;4918496;29;20032;-78
2022/04/28 04:39:23;;;;;;;5.07;3.30;;;358.80;2329.60;;;;;;4919490;29;20043;-81
2022/04/28 04:41:49;;;;;;;4.82;3.10;;;358.80;2329.60;;;;;;4919192;29;20036;-78
2022/04/28 04:44:14;;;;;;;3.92;2.88;;;358.80;2329.60;;;;;;4917870;29;20028;-79
2022/04/28 04:46:41;;;;;;;4.63;3.75;;;358.80;2329.60;;;;;;4919271;29;20028;-80
2022/04/28 04:49:08;;;;;;;3.92;3.00;;;358.80;2329.60;;;;;;4918190;29;20127;-76
2022/04/28 04:51:35;;;;;;;4.80;3.58;;;358.80;2329.60;;;;;;4918796;29;20028;-78
2022/04/28 04:54:01;;;;;;;5.97;3.60;;;358.90;2329.60;;;;;;4919314;29;20053;-78
2022/04/28 04:56:30;;;;;;;4.93;3.78;;;358.80;2329.60;;;;;;4917948;29;20485;-78
2022/04/28 04:58:56;;;;;;;8.15;4.13;;;358.80;2329.60;;;;;;4917786;29;20075;-78
2022/04/28 05:01:25;;;;;;;5.00;3.60;;;358.80;2329.60;;;;;;4918908;29;20086;-79
2022/04/28 05:03:51;;;;;;;6.65;4.00;;;358.80;2329.60;;;;;;4905947;29;20032;-80
2022/04/28 05:06:16;;;;;;;6.43;4.30;;;358.80;2329.60;;;;;;4884397;29;20032;-79
2022/04/28 05:08:42;;;;;;;5.53;4.28;;;358.80;2329.60;;;;;;4893909;29;20036;-78
2022/04/28 05:11:08;;;;;;;6.32;4.25;;;358.80;2329.60;;;;;;4918744;29;20032;-78
2022/04/28 05:13:34;;;;;;;6.55;3.63;;;358.80;2329.60;;;;;;4910223;29;20033;-79
2022/04/28 05:16:00;;;;;;;7.38;4.95;;;358.80;2329.60;;;;;;4884003;29;20517;-79
2022/04/28 05:18:28;;;;;;;6.32;4.47;;;358.70;2329.60;;;;;;4886929;29;20031;-79
2022/04/28 05:20:54;;;;;;;7.13;4.15;;;358.70;2329.60;;;;;;4918761;29;20435;-79
2022/04/28 05:23:20;;;;;;;6.55;4.18;;;358.70;2329.60;;;;;;4917638;29;20060;-78
2022/04/28 05:25:49;;;;;;;7.70;4.60;;;358.60;2329.60;;;;;;4918952;29;20035;-79
2022/04/28 05:28:15;;;;;;;6.65;4.10;;;358.70;2329.60;;;;;;4917998;29;20067;-78
2022/04/28 05:30:42;;;;;;;5.18;3.97;;;358.70;2329.60;;;;;;4918278;29;20032;-79
2022/04/28 05:33:08;;;;;;;6.38;4.82;;;358.90;2329.60;;;;;;4918197;29;20032;-79
2022/04/28 05:35:40;;;;;;;7.45;4.78;;;358.80;2329.60;;;;;;4917878;29;20028;-78
2022/04/28 05:38:11;;;;;;;8.88;5.63;;;358.70;2329.60;;;;;;4900567;29;20033;-78
2022/04/28 05:40:41;;;;;;;6.43;5.00;;;358.80;2329.60;;;;;;4883766;29;20041;-78
2022/04/28 05:45:59;;;;;;;13.77;5.03;;;358.70;2329.60;;;;;;4905582;29;20044;-78
2022/04/28 05:48:25;;;;;;;8.38;5.80;;;358.80;2329.60;;;;;;4902020;29;20028;-79
2022/04/28 05:50:52;;;;;;;8.30;6.45;;;358.80;2329.60;;;;;;4898876;29;20036;-79
2022/04/28 05:53:18;;;;;;;9.15;6.55;;;358.90;2329.60;;;;;;4915971;29;20021;-79
2022/04/28 05:55:46;;;;;;;7.85;5.97;;;359.00;2329.60;;;;;;4899328;29;20051;-78
2022/04/28 05:58:12;;;;;;;9.55;6.45;;;359.00;2329.60;;;;;;4890629;29;20036;-79
2022/04/28 06:00:38;;;;;;;9.25;7.10;;;359.00;2329.60;;;;;;4882966;29;20530;-77
2022/04/28 06:03:04;;;;;;;8.95;6.80;;;359.10;2329.60;;;;;;4883519;29;20123;-78
2022/04/28 06:05:30;;;;;;;12.85;8.77;;;358.70;2329.60;;;;;;4882777;29;20419;-80
2022/04/28 06:07:56;;;;;;;10.80;8.77;;;358.90;2329.60;;;;;;4900035;29;20033;-80
2022/04/28 06:10:31;;;;;;;15.23;12.18;;;359.00;2329.60;;;;;;4882982;29;20075;-79
2022/04/28 06:13:03;;;;;;;15.20;11.23;;;359.00;2329.60;;;;;;4883351;29;20028;-79
2022/04/28 06:15:31;;;;;;;11.38;9.88;;;358.90;2329.60;;;;;;4900238;29;20037;-80
2022/04/28 06:17:58;;;;;;;11.98;10.38;;;359.00;2329.60;;;;;;4917680;29;20040;-80
2022/04/28 06:20:24;;;;;;;15.68;12.43;;;358.90;2329.60;;;;;;4915065;29;20040;-77
2022/04/28 06:22:53;;;;;;;17.15;12.27;;;358.90;2329.60;;;;;;4917645;29;20502;-81
2022/04/28 06:25:19;;;;;;;13.52;10.85;;;358.90;2329.60;;;;;;4916757;29;20466;-78
2022/04/28 06:27:45;;;;;;;15.00;11.32;;;358.90;2329.60;;;;;;4900568;29;20029;-77
2022/04/28 06:30:11;;;;;;;16.05;11.73;;;359.00;2329.60;;;;;;4882366;29;20514;-80
2022/04/28 06:32:37;;;;;;;14.60;11.70;;;358.90;2329.60;;;;;;4899923;29;20039;-78
2022/04/28 06:35:04;;;;;;;12.20;10.65;;;359.10;2329.60;;;;;;4882472;29;20028;-78
2022/04/28 06:37:31;;;;;;;15.27;11.93;;;359.00;2329.60;;;;;;4895865;29;20028;-78
2022/04/28 06:40:00;;;;;;;15.95;11.77;;;359.20;2329.60;;;;;;4917038;29;20055;-81
2022/04/28 06:42:26;;;;;;;15.60;11.90;;;359.20;2329.60;;;;;;4902476;29;20125;-81
2022/04/28 06:44:52;;;;;;;14.77;11.32;;;359.30;2329.60;;;;;;4923042;29;20032;-81
2022/04/28 06:47:18;;;;;;;14.68;10.93;;;359.30;2329.60;;;;;;4919938;29;20029;-78
2022/04/28 06:49:43;;;;;;;15.73;11.10;;;359.30;2329.60;;;;;;4917189;29;20522;-79
2022/04/28 06:52:09;;;;;;;12.95;11.55;;;359.00;2329.60;;;;;;4917122;29;20056;-81
2022/04/28 06:54:35;;;;;;;13.60;11.40;;;359.10;2329.60;;;;;;4916091;29;20504;-81
2022/04/28 06:57:02;;;;;;;10.98;9.23;;;359.10;2329.60;;;;;;4916956;29;20060;-78
2022/04/28 06:59:28;;;;;;;16.27;10.95;;;359.30;2329.60;;;;;;4915582;29;20147;-80
2022/04/28 07:01:54;;;;;;;19.42;12.50;;;359.10;2329.60;;;;;;4916606;29;20119;-79
2022/04/28 07:04:19;;;;;;;14.63;11.30;;;358.90;2329.60;;;;;;4915596;29;20028;-77
2022/04/28 07:06:45;;;;;;;19.15;12.13;;;359.00;2329.60;;;;;;4916968;29;20028;-82
2022/04/28 07:09:11;;;;;;;13.98;10.93;;;359.00;2329.60;;;;;;4916452;29;20426;-81
2022/04/28 07:11:37;;;;;;;10.85;8.82;;;359.00;2329.60;;;;;;4916038;29;20417;-81
2022/04/28 07:14:03;;;;;;;12.38;9.82;;;359.00;2329.60;;;;;;4916703;29;20083;-77
2022/04/28 07:16:29;;;;;;;13.18;10.35;;;359.10;2329.60;;;;;;4915641;29;20028;-80
2022/04/28 07:18:55;;;;;;;13.23;10.35;;;359.30;2329.60;;;;;;4916505;29;20386;-80
2022/04/28 07:21:21;;;;;;;12.90;9.85;;;359.30;2329.60;;;;;;4900081;29;20036;-80
2022/04/28 07:23:47;;;;;;;15.15;12.25;;;384.00;2329.60;;;;;;4916300;29;20035;-80
2022/04/28 07:26:15;;;;;;;16.30;10.20;;;384.10;2329.60;;;;;;4915742;29;20032;-82
2022/04/28 07:28:41;;;;;;;17.98;10.55;;;359.30;2329.60;;;;;;4916666;29;20031;-80
2022/04/28 07:31:16;;;;;;;13.05;9.48;;;384.00;2329.60;;;;;;4898965;29;20363;-80
2022/04/28 07:33:45;;;;;;;12.93;9.45;;;359.10;2329.60;;;;;;4915453;29;20028;-82
2022/04/28 07:36:17;;;;;;;14.05;10.00;;;359.00;2329.60;;;;;;4915121;29;20123;-79
2022/04/28 07:38:43;;;;;;;12.43;9.45;;;359.00;2329.60;;;;;;4916432;29;20157;-79
2022/04/28 07:41:13;;;;;;;13.23;9.32;;;359.20;2329.60;;;;;;4916319;29;20091;-79
2022/04/28 07:43:38;;;;;;;11.18;9.20;;;384.00;2329.60;;;;;;4915540;29;20031;-79
2022/04/28 07:46:04;;;;;;;11.27;9.48;;;359.10;2329.60;;;;;;4915689;29;20025;-79
2022/04/28 07:48:30;;;;;;;11.02;9.05;;;359.10;2329.60;;;;;;4916328;29;20138;-80
2022/04/28 07:50:56;;;;;;;10.75;9.38;;;359.00;2329.60;;;;;;4915029;29;20039;-80
2022/04/28 07:53:26;;;;;;;13.57;9.85;;;359.00;2329.60;;;;;;4916247;29;20028;-83
2022/04/28 07:56:12;;;;;;;14.23;10.48;;;359.20;2329.60;;;;;;4915332;29;20056;-83
2022/04/28 07:58:48;;;;;;;16.67;10.98;;;359.30;2329.60;;;;;;4915754;29;20040;-83
2022/04/28 08:01:24;;;;;;;17.02;11.25;;;384.10;2329.60;;;;;;4916188;29;20024;-86
2022/04/28 08:03:50;;;;;;;17.20;11.13;;;384.20;2329.60;;;;;;4915324;29;20031;-85
2022/04/28 08:06:23;;;;;;;13.90;10.02;;;384.40;2329.60;;;;;;4917528;29;20032;-85
2022/04/28 08:08:48;;;;;;;16.55;10.65;;;384.50;2329.60;;;;;;4917815;29;20028;-83
2022/04/28 08:11:14;;;;;;;15.40;10.88;;;384.70;2329.60;;;;;;4919072;29;20028;-86
2022/04/28 08:13:42;;;;;;;17.00;12.82;;;384.70;2329.60;;;;;;4919980;29;20029;-83
2022/04/28 08:16:08;;;;;;;15.10;11.95;;;384.70;2329.60;;;;;;4919858;29;20029;-82
2022/04/28 08:18:39;;;;;;;14.98;10.38;;;384.80;2329.60;;;;;;4919689;29;20076;-85
2022/04/28 08:21:08;;;;;;;29.25;10.52;;;384.90;2329.60;;;;;;4919108;29;20123;-83
2022/04/28 08:23:36;;;;;;;15.68;9.52;;;409.80;2355.20;;;;;;4919847;29;20024;-85
2022/04/28 08:26:03;;;;;;;12.48;10.00;;;410.00;2355.20;;;;;;4918640;29;20024;-81
2022/04/28 08:28:29;;;;;;;15.13;9.70;;;410.30;2355.20;;;;;;4919745;29;20024;-81
2022/04/28 08:30:58;;;;;;;13.85;9.23;;;410.50;2355.20;;;;;;4918680;29;20385;-83
2022/04/28 08:33:24;;;;;;;13.10;10.23;;;435.60;2355.20;;;;;;4919261;29;20043;-83
2022/04/28 08:35:56;;;;;;;11.30;8.60;;;435.60;2355.20;;;;;;4918657;29;20083;-85
2022/04/28 08:38:22;;;;;;;9.85;8.40;;;435.60;2355.20;;;;;;4920442;29;20060;-83
2022/04/28 08:40:55;;;;;;;13.07;9.48;;;435.60;2355.20;;;;;;4903352;29;20533;-84
2022/04/28 08:43:21;;;;;;;10.35;8.52;;;435.70;2355.20;;;;;;4919447;29;20028;-82
2022/04/28 08:48:43;;;;;;;10.50;8.73;;;435.60;2355.20;;;;;;4920792;29;20032;-81
2022/04/28 08:51:10;;;;;;;10.02;8.27;;;410.20;2355.20;;;;;;4918324;29;20512;-84
2022/04/28 08:53:45;;;;;;;10.18;8.02;;;435.60;2355.20;;;;;;4919546;29;20100;-83
2022/04/28 08:56:13;;;;;;;13.13;9.98;;;435.60;2329.60;;;;;;4931599;29;20087;-83
2022/04/28 08:58:39;;;;;;;13.77;10.07;;;435.50;2304.00;;;;;;4937782;29;20031;-83
2022/04/28 09:01:09;;;;;;;12.73;10.18;;;435.60;2355.20;;;;;;4936779;29;20397;-84
2022/04/28 09:03:35;;;;;;;13.07;9.40;;;435.60;2355.20;;;;;;4937769;29;20078;-83
2022/04/28 09:09:39;;;;;;;10.20;8.48;;;435.70;2329.60;;;;;;4919209;29;20505;-83
2022/04/28 09:12:06;;;;;;;10.10;8.52;;;435.60;2329.60;;;;;;4936981;29;20111;-83
2022/04/28 09:14:32;;;;;;;11.25;8.90;;;435.60;2304.00;;;;;;4937627;29;20020;-83
2022/04/28 09:17:06;;;;;;;11.45;9.43;;;435.60;2329.60;;;;;;4937716;29;20035;-83
2022/04/28 09:19:36;;;;;;;11.45;9.70;;;435.80;2304.00;;;;;;4934914;29;20040;-82
2022/04/28 09:22:12;;;;;;;11.70;9.07;;;435.90;2304.00;;;;;;4938347;29;20054;-82
2022/04/28 09:24:40;;;;;;;10.65;8.50;;;435.90;2278.40;;;;;;4935231;29;20027;-80
2022/04/28 09:27:08;;;;;;;11.43;7.95;;;435.90;2278.40;;;;;;4921356;29;20035;-77
2022/04/28 09:29:39;;;;;;;11.43;9.93;;;435.80;2201.60;;;;;;4917765;29;20043;-78
2022/04/28 09:32:13;;;;;;;16.03;10.77;;;436.00;2227.20;;;;;;4917635;29;20039;-75
2022/04/28 09:34:49;;;;;;;13.45;9.60;;;436.00;2201.60;;;;;;4917852;29;20032;-76
2022/04/28 09:37:18;;;;;;;12.00;10.30;;;436.10;2227.20;;;;;;4917595;29;20111;-79
2022/04/28 09:42:39;;;;;;;10.43;9.15;;;436.10;2176.00;;;;;;4918568;29;20095;-76
2022/04/28 09:45:06;;;;;;;8.88;7.53;;;436.10;2201.60;;;;;;4917212;29;20499;-76
2022/04/28 09:47:33;;;;;;;11.43;8.85;;;436.10;2176.00;;;;;;4918145;29;20470;-76
2022/04/28 09:49:59;;;;;;;15.90;10.90;;;436.10;2176.00;;;;;;4916887;29;20032;-76
2022/04/28 09:52:29;;;;;;;11.95;9.18;;;435.80;2176.00;;;;;;4917716;29;20036;-75
2022/04/28 09:54:58;;;;;;;14.23;9.65;;;435.80;2227.20;;;;;;4917026;29;20046;-79
2022/04/28 09:57:25;;;;;;;12.27;9.05;;;435.80;2201.60;;;;;;4917397;29;20508;-81
2022/04/28 09:59:57;;;;;;;10.95;9.43;;;435.60;2201.60;;;;;;4916786;29;20060;-78
2022/04/28 10:02:25;;;;;;;11.27;9.70;;;410.40;2252.80;;;;;;4917075;29;20068;-78
2022/04/28 10:04:52;;;;;;;12.07;9.93;;;435.30;2252.80;;;;;;4917301;29;20048;-77
2022/04/28 10:07:20;;;;;;;11.38;9.80;;;435.50;2227.20;;;;;;4917645;29;20030;-81
2022/04/28 10:09:50;;;;;;;11.95;8.95;;;435.60;2252.80;;;;;;4917463;29;20032;-79
2022/04/28 10:12:21;;;;;;;12.10;10.00;;;435.60;2201.60;;;;;;4917539;29;20032;-76
2022/04/28 10:14:49;;;;;;;11.07;8.75;;;435.70;2227.20;;;;;;4916641;29;20024;-77
2022/04/28 10:17:25;;;;;;;16.95;9.13;;;435.80;2176.00;;;;;;4917277;29;20056;-77
2022/04/28 10:19:55;;;;;;;11.20;8.65;;;435.90;2227.20;;;;;;4916788;29;20444;-78
2022/04/28 10:22:29;;;;;;;10.10;8.15;;;436.00;2150.40;;;;;;4918473;29;20044;-78
2022/04/28 10:33:21;;;;;;;9.73;7.47;;;460.90;2150.40;;;;;;4918585;29;20031;-79
2022/04/28 10:35:50;;;;;;;11.65;7.25;;;460.90;2150.40;;;;;;4916537;29;20067;-78
2022/04/28 10:38:30;;;;;;;9.95;8.13;;;460.80;2124.80;;;;;;4900247;29;20028;-79
2022/04/28 10:41:07;;;;;;;10.98;8.35;;;460.90;2124.80;;;;;;4917064;29;20520;-80
2022/04/28 10:43:33;;;;;;;11.18;8.90;;;460.90;2124.80;;;;;;4918350;29;20024;-78
2022/04/28 10:46:27;;;;;;;15.75;9.93;;;460.90;2124.80;;;;;;4900212;29;20382;-78
2022/04/28 10:48:55;;;;;;;12.38;9.45;;;460.90;2150.40;;;;;;4916712;29;20036;-78
2022/04/28 10:51:23;;;;;;;14.82;10.80;;;460.90;2176.00;;;;;;4916165;29;20385;-79
2022/04/28 10:54:09;;;;;;;11.38;9.73;;;460.80;2176.00;;;;;;4916516;29;20023;-76
2022/04/28 10:56:50;;;;;;;20.58;14.07;;;436.10;2176.00;;;;;;4900414;29;20055;-80
2022/04/28 10:59:31;;;;;;;18.17;11.90;;;436.00;2176.00;;;;;;4916338;29;20056;-79
2022/04/28 11:02:19;;;;;;;9.68;8.20;;;435.90;2176.00;;;;;;4917025;29;20088;-84
2022/04/28 11:04:52;;;;;;;23.75;18.40;;;435.90;2176.00;;;;;;4916725;29;20352;-82
2022/04/28 11:07:23;;;;;;;13.45;11.55;;;435.90;2176.00;;;;;;4900625;29;20111;-83
2022/04/28 11:09:57;;;;;;;12.80;10.63;;;435.90;2201.60;;;;;;4917725;29;20123;-86
2022/04/28 11:12:24;;;;;;;18.75;14.38;;;435.90;2176.00;;;;;;4916745;29;20028;-81
2022/04/28 11:14:52;;;;;;;12.15;9.57;;;436.00;2176.00;;;;;;4915978;29;20035;-82
2022/04/28 11:17:23;;;;;;;10.20;8.13;;;436.10;2150.40;;;;;;4900963;29;20547;-80
2022/04/28 11:19:50;;;;;;;10.75;9.15;;;460.80;2150.40;;;;;;4914909;29;20044;-78
2022/04/28 11:22:16;;;;;;;10.40;8.40;;;460.80;2176.00;;;;;;4900839;29;20039;-78
2022/04/28 11:24:43;;;;;;;13.98;10.93;;;436.10;2124.80;;;;;;4898668;29;20032;-81
2022/04/28 11:27:20;;;;;;;12.57;9.23;;;436.10;2150.40;;;;;;4880738;29;20028;-83
2022/04/28 11:29:48;;;;;;;12.57;11.02;;;460.90;2201.60;;;;;;4881647;29;20040;-81
2022/04/28 11:32:18;;;;;;;10.32;8.10;;;460.90;2176.00;;;;;;4895077;29;20047;-82
2022/04/28 11:34:45;;;;;;;10.07;7.85;;;460.90;2176.00;;;;;;4915761;29;20032;-82
2022/04/28 11:37:24;;;;;;;16.08;10.77;;;460.90;2150.40;;;;;;4915499;29;20497;-79
2022/04/28 11:39:52;;;;;;;15.57;9.82;;;461.10;2176.00;;;;;;4916090;29;20036;-81
2022/04/28 11:42:18;;;;;;;13.13;10.60;;;461.20;2150.40;;;;;;4915635;29;20024;-80
2022/04/28 11:44:55;;;;;;;19.75;10.02;;;461.20;2124.80;;;;;;4915891;29;20067;-81
2022/04/28 11:47:23;;;;;;;11.05;8.13;;;461.40;2150.40;;;;;;4917147;29;20083;-82
2022/04/28 11:50:03;;;;;;;12.80;8.63;;;461.50;2124.80;;;;;;4914986;29;20453;-77
2022/04/28 11:52:34;;;;;;;9.82;8.15;;;461.50;2048.00;;;;;;4900488;29;20047;-78
2022/04/28 11:55:08;;;;;;;10.07;7.60;;;486.40;2073.60;;;;;;4916012;29;20028;-78
2022/04/28 11:57:39;;;;;;;11.35;7.65;;;486.60;2048.00;;;;;;4915304;29;20429;-75
2022/04/28 12:00:12;;;;;;;9.05;7.22;;;487.10;1996.80;;;;;;4916827;29;20052;-79
2022/04/28 12:02:41;;;;;;;8.43;7.43;;;487.10;1971.20;;;;;;4915796;29;20079;-80
2022/04/28 12:05:25;;;;;;;9.90;7.55;;;486.90;1996.80;;;;;;4914977;29;20035;-76
2022/04/28 12:07:52;;;;;;;9.18;7.45;;;486.70;1996.80;;;;;;4916807;29;20036;-79
2022/04/28 12:16:02;;;;;;;11.88;8.68;;;486.40;2022.40;;;;;;4916473;29;20031;-76
2022/04/28 12:21:22;;;;;;;10.63;7.60;;;486.50;1996.80;;;;;;4916090;29;20043;-77
2022/04/28 12:23:58;;;;;;;9.98;7.15;;;461.60;1996.80;;;;;;4916305;29;20029;-78
2022/04/28 12:26:26;;;;;;;9.63;7.57;;;461.40;2022.40;;;;;;4914867;29;20036;-77
2022/04/28 12:28:52;;;;;;;10.05;7.22;;;461.40;2048.00;;;;;;4915575;29;20393;-78
2022/04/28 12:31:30;;;;;;;9.77;7.93;;;486.50;2022.40;;;;;;4914999;29;20032;-77
2022/04/28 12:33:56;;;;;;;8.40;7.05;;;461.60;2022.40;;;;;;4915693;29;20032;-79
2022/04/28 12:36:24;;;;;;;11.43;7.85;;;461.40;2048.00;;;;;;4913170;29;20025;-79
2022/04/28 12:38:53;;;;;;;10.13;8.00;;;461.50;2048.00;;;;;;4880650;29;20036;-79
2022/04/28 12:41:24;;;;;;;9.38;8.23;;;461.50;2022.40;;;;;;4894249;29;20072;-76
2022/04/28 12:43:51;;;;;;;10.95;8.05;;;461.60;2022.40;;;;;;4899364;29;20118;-76
2022/04/28 12:46:33;;;;;;;11.35;9.00;;;461.70;2048.00;;;;;;4914777;29;20091;-77
2022/04/28 12:49:01;;;;;;;9.37;7.37;;;486.50;2073.60;;;;;;4915271;29;20036;-77
2022/04/28 12:51:28;;;;;;;10.73;7.18;;;486.70;2022.40;;;;;;4914286;29;20263;-75
2022/04/28 12:54:09;;;;;;;10.05;7.95;;;486.60;1996.80;;;;;;4915967;29;20060;-77
2022/04/28 12:56:37;;;;;;;11.88;8.20;;;486.70;1996.80;;;;;;4917738;29;20363;-77
2022/04/28 12:59:05;;;;;;;10.52;7.25;;;486.70;1996.80;;;;;;4917668;29;20119;-77
2022/04/28 13:01:32;;;;;;;11.02;8.88;;;486.80;2022.40;;;;;;4918226;29;20063;-77
2022/04/28 13:03:58;;;;;;;12.82;8.50;;;486.70;1996.80;;;;;;4920372;29;20059;-76